Time;durP1;ratioP1;P1;durP2;ratioP2;P2;SDS_P1;SDS_P2;PMS_P1;PMS_P2;Temp;Humidity;BMP_temperature;BMP_pressure;BME280_temperature;BME280_humidity;BME280_pressure;Samples;Min_cycle;Max_cycle;Signal;HPM_P1;HPM_P2
2021/12/21 00:00:35;;;;;;;8.25;2.63;;;0.20;77.90;;;;;;5027254;28;20056;-68
2021/12/21 00:03:09;;;;;;;7.30;2.67;;;0.20;77.80;;;;;;5030295;28;20490;-70
2021/12/21 00:05:43;;;;;;;9.55;3.42;;;0.10;77.90;;;;;;5030494;28;20483;-69
2021/12/21 00:08:24;;;;;;;5.72;2.45;;;0.10;77.80;;;;;;4985565;28;20072;-69
2021/12/21 00:11:19;;;;;;;3.57;1.94;;;0.10;77.90;;;;;;2198931;28;10150578;-68
2021/12/21 00:14:17;;;;;;;8.98;3.35;;;0.10;77.80;;;;;;3642564;28;10001514;-69
2021/12/21 00:19:47;;;;;;;6.13;3.17;;;0.10;77.80;;;;;;5026375;28;20412;-69
2021/12/21 00:22:34;;;;;;;8.02;2.13;;;0.10;77.70;;;;;;5030749;28;20033;-68
2021/12/21 00:25:01;;;;;;;4.32;2.20;;;0.00;77.70;;;;;;5028937;28;20041;-69
2021/12/21 00:27:33;;;;;;;8.35;3.25;;;0.00;77.70;;;;;;5030216;28;20049;-69
2021/12/21 00:30:01;;;;;;;6.68;2.90;;;0.00;77.70;;;;;;5029217;28;20057;-69
2021/12/21 00:32:30;;;;;;;6.65;3.20;;;0.00;77.70;;;;;;5029660;28;20422;-69
2021/12/21 00:34:57;;;;;;;7.07;3.03;;;0.00;77.60;;;;;;5028526;28;20677;-69
2021/12/21 00:37:27;;;;;;;8.00;3.35;;;0.00;77.60;;;;;;5030210;28;20176;-69
2021/12/21 00:39:54;;;;;;;6.63;2.97;;;0.00;77.70;;;;;;5029992;28;20044;-69
2021/12/21 00:42:21;;;;;;;8.05;2.80;;;0.00;77.60;;;;;;5029285;28;20493;-69
2021/12/21 00:44:48;;;;;;;6.15;2.67;;;0.00;77.70;;;;;;5029682;28;20045;-69
2021/12/21 00:47:16;;;;;;;7.10;3.13;;;0.00;77.70;;;;;;5029616;28;20049;-69
2021/12/21 00:49:47;;;;;;;6.43;3.33;;;0.00;77.70;;;;;;5010812;28;20072;-68
2021/12/21 00:52:14;;;;;;;6.70;2.70;;;0.00;77.70;;;;;;5030126;28;20052;-68
2021/12/21 00:54:42;;;;;;;5.30;2.78;;;0.00;77.60;;;;;;5029200;28;20051;-68
2021/12/21 00:57:09;;;;;;;4.65;2.17;;;-3276.70;77.60;;;;;;5029298;28;20077;-68
2021/12/21 00:59:36;;;;;;;9.25;3.63;;;-3276.70;77.60;;;;;;5027935;28;20045;-68
2021/12/21 01:02:05;;;;;;;10.50;3.28;;;-3276.70;77.60;;;;;;5026457;28;20100;-70
2021/12/21 01:04:37;;;;;;;8.43;3.10;;;-3276.70;77.70;;;;;;5029149;28;20053;-69
2021/12/21 01:07:16;;;;;;;5.65;2.17;;;-3276.70;77.60;;;;;;5028857;28;20132;-71
2021/12/21 01:12:39;;;;;;;;;;;-3276.70;77.50;;;;;;4984499;28;20062;-70
2021/12/21 01:15:16;;;;;;;2.75;1.77;;;-3276.60;77.60;;;;;;5028313;28;19921;-69
2021/12/21 01:17:52;;;;;;;4.53;1.65;;;-3276.60;77.70;;;;;;5028175;28;20057;-69
2021/12/21 01:20:31;;;;;;;9.68;3.63;;;-3276.60;77.70;;;;;;5027925;28;20045;-69
2021/12/21 01:25:43;;;;;;;4.22;1.55;;;-3276.60;77.50;;;;;;5018135;28;20411;-69
2021/12/21 01:28:17;;;;;;;7.82;2.53;;;-3276.60;77.50;;;;;;5023004;28;20120;-70
2021/12/21 01:30:52;;;;;;;11.55;2.45;;;-3276.60;77.50;;;;;;5027721;28;20045;-70
2021/12/21 01:33:34;;;;;;;6.28;2.35;;;-3276.60;77.50;;;;;;5027809;28;20503;-71
2021/12/21 01:36:04;;;;;;;6.55;2.83;;;-3276.60;77.50;;;;;;5029726;28;20564;-68
2021/12/21 01:38:39;;;;;;;6.03;2.15;;;-3276.60;77.50;;;;;;5029005;28;20049;-68
2021/12/21 01:41:19;;;;;;;4.57;2.00;;;-3276.50;77.50;;;;;;5029273;28;20050;-69
2021/12/21 01:43:55;;;;;;;2.70;1.23;;;-3276.50;77.60;;;;;;5029099;28;20038;-69
2021/12/21 01:51:52;;;;;;;4.07;1.95;;;-3276.50;77.50;;;;;;5032921;28;20179;-69
2021/12/21 01:54:20;;;;;;;4.65;2.20;;;-3276.50;77.60;;;;;;5033579;28;20119;-69
2021/12/21 01:56:47;;;;;;;7.03;2.20;;;-3276.50;77.70;;;;;;5032598;28;20124;-70
2021/12/21 01:59:15;;;;;;;7.53;2.20;;;-3276.60;77.70;;;;;;5033135;28;20206;-69
2021/12/21 02:01:42;;;;;;;4.00;2.17;;;-3276.50;77.70;;;;;;5031673;28;20041;-69
2021/12/21 02:04:11;;;;;;;10.38;2.90;;;-3276.60;77.80;;;;;;5032863;28;20482;-70
2021/12/21 02:06:39;;;;;;;5.43;2.47;;;-3276.60;77.80;;;;;;5031970;28;20053;-69
2021/12/21 02:09:06;;;;;;;4.97;2.15;;;-3276.50;77.70;;;;;;5033500;28;20049;-69
2021/12/21 02:11:35;;;;;;;6.13;2.70;;;-3276.50;77.70;;;;;;5033325;28;20116;-69
2021/12/21 02:14:01;;;;;;;7.10;2.65;;;-3276.50;77.70;;;;;;5033122;28;20060;-69
2021/12/21 02:16:35;;;;;;;6.47;2.80;;;-3276.50;77.70;;;;;;5032512;28;20310;-69
2021/12/21 02:19:06;;;;;;;7.25;2.88;;;-3276.50;77.70;;;;;;5032036;28;20517;-69
2021/12/21 02:21:40;;;;;;;;;;;-3276.50;77.70;;;;;;5033445;28;20517;-70
2021/12/21 02:24:13;;;;;;;10.07;2.67;;;-3276.50;77.80;;;;;;5032620;28;19959;-69
2021/12/21 02:26:48;;;;;;;4.20;1.83;;;-3276.50;77.80;;;;;;5033209;28;20042;-69
2021/12/21 02:29:18;;;;;;;7.43;2.65;;;-3276.50;77.70;;;;;;5032337;28;20042;-70
2021/12/21 02:31:48;;;;;;;5.07;2.28;;;-3276.50;77.80;;;;;;5032238;28;20495;-69
2021/12/21 02:34:16;;;;;;;4.57;1.92;;;-3276.40;77.80;;;;;;5032729;28;20056;-70
2021/12/21 02:36:46;;;;;;;5.07;2.22;;;-3276.50;77.90;;;;;;5031252;28;20042;-70
2021/12/21 02:39:14;;;;;;;8.18;3.17;;;-3276.50;77.80;;;;;;5030556;28;20041;-69
2021/12/21 02:41:42;;;;;;;4.90;2.15;;;-3276.50;77.80;;;;;;5030876;28;20128;-70
2021/12/21 02:44:10;;;;;;;4.88;2.60;;;-3276.50;77.80;;;;;;5030534;28;20042;-72
2021/12/21 02:46:39;;;;;;;6.47;1.95;;;-3276.40;77.80;;;;;;5031646;28;20072;-69
2021/12/21 02:49:06;;;;;;;3.28;1.25;;;-3276.40;77.80;;;;;;5029770;28;20072;-69
2021/12/21 02:51:33;;;;;;;4.25;2.28;;;-3276.40;77.80;;;;;;5029740;28;20041;-69
2021/12/21 02:54:02;;;;;;;8.13;1.80;;;-3276.40;77.80;;;;;;5030630;28;20154;-68
2021/12/21 02:56:31;;;;;;;7.13;2.80;;;-3276.40;77.90;;;;;;5029616;28;20132;-68
2021/12/21 02:58:58;;;;;;;5.20;2.08;;;-3276.40;77.90;;;;;;5029144;28;20379;-69
2021/12/21 03:01:25;;;;;;;4.78;1.35;;;-3276.40;77.90;;;;;;5028381;28;20415;-68
2021/12/21 03:03:53;;;;;;;6.13;2.33;;;-3276.40;77.80;;;;;;5031077;28;20125;-70
2021/12/21 03:06:50;;;;;;;3.08;1.55;;;-3276.30;77.90;;;;;;5029832;28;20041;-70
2021/12/21 03:09:36;;;;;;;4.93;1.75;;;-3276.30;77.90;;;;;;5029113;28;20497;-71
2021/12/21 03:12:28;;;;;;;4.25;1.95;;;-3276.30;78.10;;;;;;5030596;28;20048;-69
2021/12/21 03:14:55;;;;;;;3.20;1.52;;;-3276.40;78.10;;;;;;5029793;28;20052;-69
2021/12/21 03:17:23;;;;;;;5.35;1.88;;;-3276.30;78.10;;;;;;5032095;28;20052;-69
2021/12/21 03:19:49;;;;;;;6.30;2.08;;;-3276.30;78.20;;;;;;5032636;28;20503;-70
2021/12/21 03:22:17;;;;;;;4.15;1.48;;;-3276.30;78.20;;;;;;5030751;28;20763;-68
2021/12/21 03:24:46;;;;;;;5.10;1.60;;;-3276.30;78.20;;;;;;5030891;28;20538;-69
2021/12/21 03:27:13;;;;;;;2.78;1.38;;;-3276.30;78.20;;;;;;5031399;28;20419;-69
2021/12/21 03:29:40;;;;;;;5.10;1.42;;;-3276.30;78.10;;;;;;5032274;28;20041;-68
2021/12/21 03:32:07;;;;;;;6.35;1.48;;;-3276.30;77.90;;;;;;5026215;28;20041;-69
2021/12/21 03:34:34;;;;;;;4.78;1.88;;;-3276.20;77.90;;;;;;5031522;28;20402;-67
2021/12/21 03:37:04;;;;;;;4.88;1.95;;;-3276.20;77.80;;;;;;5032274;28;20050;-68
2021/12/21 03:39:30;;;;;;;5.45;2.15;;;-3276.20;77.80;;;;;;5030351;28;20136;-69
2021/12/21 03:42:00;;;;;;;4.80;2.40;;;-3276.20;77.80;;;;;;5030627;28;20045;-69
2021/12/21 03:44:31;;;;;;;7.75;2.35;;;-3276.20;77.60;;;;;;5031183;28;20125;-70
2021/12/21 03:46:58;;;;;;;4.40;1.65;;;-3276.20;77.60;;;;;;5031600;28;20041;-70
2021/12/21 03:52:15;;;;;;;4.72;2.22;;;-3276.10;77.60;;;;;;5031459;28;20037;-70
2021/12/21 03:54:44;;;;;;;2.75;1.77;;;-3276.10;77.80;;;;;;5031138;28;20132;-69
2021/12/21 03:57:13;;;;;;;3.72;1.58;;;-3276.10;77.70;;;;;;5029566;28;20526;-69
2021/12/21 03:59:41;;;;;;;3.20;2.08;;;-3276.10;77.60;;;;;;5031628;28;20077;-69
2021/12/21 04:02:10;;;;;;;3.28;1.00;;;-3276.10;77.60;;;;;;5028832;28;20116;-68
2021/12/21 04:04:37;;;;;;;5.00;1.30;;;-3276.10;77.50;;;;;;5030775;28;20049;-69
2021/12/21 04:07:05;;;;;;;6.15;1.80;;;-3276.10;77.50;;;;;;5029934;28;20491;-68
2021/12/21 04:09:32;;;;;;;4.13;1.40;;;-3276.00;77.60;;;;;;5019987;28;20732;-68
2021/12/21 04:12:00;;;;;;;4.13;2.42;;;-3276.00;77.50;;;;;;5031560;28;20055;-69
2021/12/21 04:14:33;;;;;;;6.13;1.58;;;-3276.00;77.50;;;;;;5030692;28;20056;-70
2021/12/21 04:17:00;;;;;;;1.35;1.08;;;-3276.00;77.50;;;;;;5029679;28;20075;-68
2021/12/21 04:19:30;;;;;;;4.50;1.73;;;-3276.00;77.40;;;;;;5029565;28;20129;-70
2021/12/21 04:22:00;;;;;;;3.70;1.50;;;-3276.00;77.30;;;;;;5028066;28;20095;-70
2021/12/21 04:24:27;;;;;;;1.73;1.02;;;-3275.90;77.40;;;;;;5028623;28;20049;-69
2021/12/21 04:26:54;;;;;;;5.22;1.63;;;-3275.90;77.30;;;;;;5027979;28;20056;-70
2021/12/21 04:29:21;;;;;;;4.68;1.85;;;-3275.90;77.30;;;;;;5028440;28;20052;-71
2021/12/21 04:31:49;;;;;;;5.80;1.77;;;-3275.90;77.40;;;;;;5028711;28;20047;-71
2021/12/21 04:34:17;;;;;;;5.03;1.67;;;-3275.90;77.40;;;;;;5028728;28;20470;-69
2021/12/21 04:36:45;;;;;;;4.40;1.73;;;-3275.90;77.40;;;;;;5027633;28;20057;-71
2021/12/21 04:39:23;;;;;;;3.88;1.63;;;-3275.90;77.40;;;;;;5028519;28;20053;-70
2021/12/21 04:41:50;;;;;;;2.63;1.23;;;-3275.90;77.50;;;;;;5028274;28;20049;-68
2021/12/21 04:44:17;;;;;;;2.90;1.88;;;-3275.90;77.40;;;;;;5028893;28;20043;-70
2021/12/21 04:46:44;;;;;;;3.50;1.65;;;-3275.90;77.30;;;;;;5028885;28;20050;-69
2021/12/21 04:49:12;;;;;;;2.80;1.60;;;-3275.80;77.30;;;;;;5028035;28;20107;-68
2021/12/21 04:51:39;;;;;;;4.63;2.17;;;-3275.80;77.30;;;;;;5028076;28;20048;-70
2021/12/21 04:54:06;;;;;;;4.20;1.77;;;-3275.80;77.20;;;;;;5027753;28;20080;-68
2021/12/21 04:56:33;;;;;;;5.60;1.58;;;-3275.70;77.20;;;;;;5030080;28;20048;-70
2021/12/21 04:59:00;;;;;;;4.35;1.55;;;-3275.70;77.30;;;;;;5029212;28;20046;-68
2021/12/21 05:01:28;;;;;;;4.80;1.58;;;-3275.70;77.30;;;;;;5027605;28;20041;-69
2021/12/21 05:03:55;;;;;;;4.45;1.58;;;-3275.70;77.30;;;;;;5030596;28;20133;-68
2021/12/21 05:06:23;;;;;;;3.85;1.23;;;-3275.70;77.30;;;;;;5029999;28;20045;-69
2021/12/21 05:09:04;;;;;;;2.03;1.35;;;-3275.70;77.30;;;;;;5029057;28;20049;-68
2021/12/21 05:11:34;;;;;;;2.95;1.48;;;-3275.60;77.40;;;;;;5029804;28;20513;-70
2021/12/21 05:14:01;;;;;;;2.70;1.30;;;-3275.60;77.30;;;;;;5029366;28;20572;-69
2021/12/21 05:16:28;;;;;;;3.50;1.70;;;-3275.60;77.30;;;;;;5030635;28;20561;-68
2021/12/21 05:18:55;;;;;;;3.10;1.25;;;-3275.60;77.20;;;;;;5029440;28;20158;-69
2021/12/21 05:21:24;;;;;;;9.60;2.08;;;-3275.60;77.20;;;;;;5029499;28;20124;-69
2021/12/21 05:23:50;;;;;;;4.20;2.25;;;-3275.60;77.30;;;;;;5033262;28;20045;-69
2021/12/21 05:26:18;;;;;;;3.10;1.63;;;-3275.60;77.40;;;;;;5033733;28;20514;-68
2021/12/21 05:28:45;;;;;;;2.53;1.08;;;-3275.60;77.30;;;;;;5033852;28;20051;-70
2021/12/21 05:31:12;;;;;;;3.95;1.60;;;-3275.60;77.30;;;;;;5032896;28;20037;-69
2021/12/21 05:33:40;;;;;;;5.75;1.98;;;-3275.50;77.30;;;;;;5032968;28;20076;-69
2021/12/21 05:36:07;;;;;;;3.97;1.85;;;-3275.60;77.30;;;;;;5034208;28;20083;-68
2021/12/21 05:38:35;;;;;;;4.90;1.60;;;-3275.60;77.20;;;;;;5033637;28;20069;-68
2021/12/21 05:41:06;;;;;;;6.13;1.75;;;-3275.50;77.20;;;;;;5032966;28;20087;-70
2021/12/21 05:43:33;;;;;;;4.78;1.65;;;-3275.50;77.10;;;;;;5033536;28;20061;-68
2021/12/21 05:46:01;;;;;;;3.42;1.67;;;-3275.50;77.20;;;;;;5033361;28;20041;-70
2021/12/21 05:48:29;;;;;;;3.97;2.05;;;-3275.50;77.20;;;;;;5033629;28;20080;-69
2021/12/21 05:50:55;;;;;;;7.03;2.55;;;-3275.50;77.20;;;;;;5033085;28;20037;-68
2021/12/21 05:53:22;;;;;;;3.25;1.80;;;-3275.50;77.20;;;;;;5033650;28;20050;-69
2021/12/21 05:55:51;;;;;;;5.28;1.67;;;-3275.50;77.30;;;;;;5032894;28;20048;-68
2021/12/21 05:58:18;;;;;;;3.35;1.33;;;-3275.50;77.20;;;;;;5031809;28;20068;-70
2021/12/21 06:00:45;;;;;;;5.70;2.00;;;-3275.50;77.20;;;;;;5028557;28;20052;-70
2021/12/21 06:03:12;;;;;;;7.03;1.70;;;-3275.50;77.10;;;;;;5031358;28;20038;-68
2021/12/21 06:05:39;;;;;;;4.57;2.63;;;-3275.50;77.10;;;;;;5014958;28;20434;-68
2021/12/21 06:08:06;;;;;;;4.78;1.60;;;-3275.40;77.10;;;;;;5031249;28;20151;-68
2021/12/21 06:10:36;;;;;;;5.45;2.05;;;-3275.40;77.20;;;;;;5026077;28;20120;-68
2021/12/21 06:13:27;;;;;;;6.05;1.80;;;-3275.40;77.20;;;;;;5031149;28;20045;-68
2021/12/21 06:16:19;;;;;;;6.03;1.70;;;-3275.40;77.00;;;;;;5030919;28;20107;-67
2021/12/21 06:26:59;;;;;;;2.30;0.90;;;-3275.40;77.10;;;;;;5030019;28;20045;-69
2021/12/21 06:29:28;;;;;;;4.22;2.10;;;-3275.40;77.00;;;;;;5029737;28;20041;-69
2021/12/21 06:31:55;;;;;;;7.25;1.50;;;-3275.30;77.00;;;;;;5029394;28;20039;-70
2021/12/21 06:34:22;;;;;;;3.33;1.67;;;-3275.30;77.00;;;;;;5030372;28;20514;-69
2021/12/21 06:36:50;;;;;;;6.55;1.95;;;-3275.30;77.10;;;;;;5031857;28;20049;-70
2021/12/21 06:39:17;;;;;;;2.72;1.40;;;-3275.30;77.00;;;;;;5031119;28;20545;-69
2021/12/21 06:41:45;;;;;;;4.85;2.03;;;-3275.30;77.00;;;;;;5032380;28;20116;-68
2021/12/21 06:44:14;;;;;;;5.03;1.48;;;-3275.30;77.00;;;;;;5032750;28;20095;-70
2021/12/21 06:47:03;;;;;;;10.93;1.38;;;-3275.30;76.80;;;;;;5032425;28;20045;-69
2021/12/21 06:52:16;;;;;;;4.80;1.85;;;-3275.20;76.90;;;;;;5032835;28;20503;-70
2021/12/21 06:54:43;;;;;;;2.15;1.08;;;-3275.20;76.90;;;;;;5033282;28;20519;-68
2021/12/21 06:57:10;;;;;;;4.72;1.65;;;-3275.20;76.90;;;;;;5032911;28;20045;-71
2021/12/21 06:59:37;;;;;;;3.78;1.40;;;-3275.20;76.90;;;;;;5031417;28;20057;-68
2021/12/21 07:02:07;;;;;;;3.50;1.60;;;-3275.20;76.90;;;;;;5029996;28;20124;-69
2021/12/21 07:04:34;;;;;;;3.60;1.98;;;-3275.20;76.90;;;;;;5032055;28;20053;-67
2021/12/21 07:07:02;;;;;;;5.57;2.47;;;-3275.10;77.00;;;;;;5032958;28;20037;-68
2021/12/21 07:09:38;;;;;;;3.58;1.23;;;-3275.10;77.00;;;;;;5032277;28;20120;-67
2021/12/21 07:12:34;;;;;;;3.38;1.77;;;-3275.20;77.10;;;;;;5032400;28;20570;-70
2021/12/21 07:20:43;;;;;;;8.95;2.72;;;-3275.20;77.20;;;;;;4951136;28;20137;-68
2021/12/21 07:23:10;;;;;;;4.13;1.85;;;-3275.20;77.10;;;;;;5011636;28;20065;-70
2021/12/21 07:25:37;;;;;;;3.60;1.70;;;-3275.20;77.10;;;;;;5031009;28;20722;-69
2021/12/21 07:28:04;;;;;;;3.65;1.65;;;-3275.20;77.10;;;;;;5031835;28;20053;-68
2021/12/21 07:30:31;;;;;;;5.40;1.48;;;-3275.20;77.10;;;;;;5031678;28;20056;-68
2021/12/21 07:33:00;;;;;;;6.55;1.85;;;-3275.20;77.20;;;;;;5031100;28;20057;-69
2021/12/21 07:35:27;;;;;;;2.60;1.27;;;-3275.30;77.20;;;;;;5031143;28;20041;-69
2021/12/21 07:37:54;;;;;;;4.80;2.63;;;-3275.30;77.30;;;;;;5030003;28;20053;-70
2021/12/21 07:40:20;;;;;;;2.70;1.20;;;-3275.30;77.30;;;;;;5019421;28;20063;-69
2021/12/21 07:42:48;;;;;;;3.83;1.80;;;-3275.30;77.30;;;;;;5029404;28;20393;-67
2021/12/21 07:45:16;;;;;;;4.05;1.70;;;-3275.30;77.30;;;;;;5028298;28;20049;-69
2021/12/21 07:47:43;;;;;;;6.03;2.10;;;-3275.30;77.30;;;;;;5028270;28;20483;-69
2021/12/21 07:50:13;;;;;;;8.05;1.67;;;-3275.20;77.40;;;;;;5029031;28;20567;-68
2021/12/21 07:52:40;;;;;;;2.92;1.55;;;-3275.20;77.40;;;;;;5029039;28;20342;-71
2021/12/21 07:55:08;;;;;;;5.20;2.38;;;-3275.20;77.40;;;;;;5028833;28;20045;-70
2021/12/21 07:57:34;;;;;;;5.65;1.83;;;-3275.20;77.40;;;;;;5012201;28;20462;-70
2021/12/21 08:00:07;;;;;;;3.78;1.27;;;-3275.20;77.50;;;;;;5028223;28;20124;-70
2021/12/21 08:02:40;;;;;;;5.20;2.22;;;-3275.30;77.40;;;;;;5028014;28;20180;-68
2021/12/21 08:05:08;;;;;;;3.30;1.67;;;-3275.20;77.40;;;;;;5028757;28;20042;-69
2021/12/21 08:07:45;;;;;;;7.68;2.33;;;-3275.20;77.50;;;;;;5028964;28;20079;-69
2021/12/21 08:10:19;;;;;;;3.08;1.45;;;-3275.20;77.60;;;;;;5029315;28;20037;-69
2021/12/21 08:12:46;;;;;;;3.50;2.45;;;-3275.20;77.70;;;;;;5029691;28;20128;-69
2021/12/21 08:15:13;;;;;;;3.85;1.40;;;-3275.30;77.60;;;;;;5029523;28;20054;-69
2021/12/21 08:17:41;;;;;;;3.83;1.88;;;-3275.30;77.60;;;;;;5031001;28;20041;-69
2021/12/21 08:20:08;;;;;;;5.47;2.13;;;-3275.30;77.70;;;;;;5013075;28;20426;-69
2021/12/21 08:22:37;;;;;;;6.60;2.75;;;-3275.30;77.70;;;;;;5030496;28;20049;-70
2021/12/21 08:25:06;;;;;;;3.20;1.42;;;-3275.30;77.80;;;;;;5030711;28;20037;-68
2021/12/21 08:27:33;;;;;;;5.78;1.83;;;-3275.40;77.80;;;;;;5029775;28;20107;-70
2021/12/21 08:30:00;;;;;;;4.15;1.85;;;-3275.40;77.90;;;;;;5030725;28;20427;-68
2021/12/21 08:32:27;;;;;;;4.05;1.85;;;-3275.40;77.90;;;;;;5030594;28;20157;-69
2021/12/21 08:34:54;;;;;;;2.63;2.15;;;-3275.40;77.90;;;;;;5030399;28;20053;-68
2021/12/21 08:37:21;;;;;;;6.00;1.60;;;-3275.50;78.00;;;;;;5030648;28;20120;-68
2021/12/21 08:39:49;;;;;;;3.78;2.42;;;-3275.50;78.00;;;;;;5030088;28;20117;-69
2021/12/21 08:42:16;;;;;;;17.75;4.18;;;-3275.50;78.00;;;;;;5030636;28;20495;-68
2021/12/21 08:44:47;;;;;;;7.40;2.88;;;-3275.50;78.10;;;;;;5011201;28;20053;-68
2021/12/21 08:47:15;;;;;;;4.47;1.77;;;-3275.50;78.20;;;;;;5028659;28;20493;-69
2021/12/21 08:49:42;;;;;;;5.70;2.38;;;-3275.50;78.20;;;;;;5012720;28;20455;-69
2021/12/21 08:52:09;;;;;;;4.22;1.65;;;-3275.60;78.30;;;;;;5030192;28;20120;-68
2021/12/21 08:54:38;;;;;;;7.43;2.25;;;-3275.60;78.30;;;;;;5028866;28;20049;-71
2021/12/21 08:57:07;;;;;;;8.40;3.00;;;-3275.60;78.40;;;;;;5030206;28;20072;-68
2021/12/21 08:59:34;;;;;;;6.30;2.22;;;-3275.60;78.50;;;;;;5030131;28;20620;-69
2021/12/21 09:02:01;;;;;;;6.53;2.33;;;-3275.60;78.60;;;;;;5027911;28;20034;-70
2021/12/21 09:04:35;;;;;;;5.25;2.30;;;-3275.70;78.60;;;;;;5030215;28;20406;-69
2021/12/21 09:07:03;;;;;;;4.22;2.10;;;-3275.70;78.50;;;;;;5031132;28;20055;-70
2021/12/21 09:09:30;;;;;;;5.75;2.22;;;-3275.80;78.50;;;;;;5029605;28;20487;-70
2021/12/21 09:11:57;;;;;;;4.72;1.70;;;-3275.80;78.60;;;;;;5030407;28;20069;-69
2021/12/21 09:14:31;;;;;;;6.07;2.47;;;-3275.80;78.60;;;;;;5030293;28;20038;-69
2021/12/21 09:16:58;;;;;;;7.32;3.15;;;-3275.80;78.70;;;;;;5010408;28;20567;-67
2021/12/21 09:19:25;;;;;;;10.32;3.22;;;-3275.80;78.70;;;;;;5028294;28;20038;-69
2021/12/21 09:21:52;;;;;;;4.47;2.10;;;-3275.90;78.60;;;;;;5028371;28;20495;-70
2021/12/21 09:24:19;;;;;;;6.25;2.00;;;-3275.90;78.70;;;;;;5028548;28;20093;-68
2021/12/21 09:26:46;;;;;;;5.85;3.65;;;-3276.00;78.80;;;;;;5027416;28;20052;-70
2021/12/21 09:29:13;;;;;;;3.67;2.15;;;-3276.00;78.80;;;;;;5027730;28;20232;-70
2021/12/21 09:31:48;;;;;;;5.15;2.30;;;-3276.00;78.80;;;;;;5027834;28;20487;-69
2021/12/21 09:34:15;;;;;;;4.28;2.10;;;-3276.00;78.80;;;;;;5027963;28;20056;-70
2021/12/21 09:36:41;;;;;;;2.90;2.13;;;-3276.00;78.80;;;;;;5026702;28;20089;-68
2021/12/21 09:39:08;;;;;;;5.35;2.85;;;-3276.10;79.00;;;;;;5028098;28;20041;-68
2021/12/21 09:41:35;;;;;;;9.23;2.58;;;-3276.10;78.90;;;;;;5027347;28;20045;-68
2021/12/21 09:44:04;;;;;;;8.88;1.75;;;-3276.10;79.00;;;;;;5027731;28;20041;-70
2021/12/21 09:46:31;;;;;;;8.20;2.50;;;-3276.10;78.90;;;;;;5027370;28;20095;-69
2021/12/21 09:48:59;;;;;;;10.38;3.80;;;-3276.20;79.00;;;;;;5027853;28;20056;-69
2021/12/21 09:51:26;;;;;;;5.15;2.85;;;-3276.20;79.00;;;;;;5027560;28;20049;-70
2021/12/21 09:53:56;;;;;;;9.63;2.75;;;-3276.20;79.10;;;;;;5025928;28;20494;-70
2021/12/21 09:56:23;;;;;;;4.68;2.20;;;-3276.30;79.20;;;;;;5029167;28;20045;-69
2021/12/21 09:58:50;;;;;;;9.82;2.80;;;-3276.30;79.40;;;;;;5030275;28;20050;-71
2021/12/21 10:01:20;;;;;;;4.93;2.58;;;-3276.40;79.50;;;;;;5027450;28;20103;-71
2021/12/21 10:03:48;;;;;;;7.15;2.65;;;-3276.40;79.50;;;;;;5029401;28;20120;-70
2021/12/21 10:06:16;;;;;;;3.67;2.05;;;-3276.40;79.60;;;;;;5029985;28;20402;-68
2021/12/21 10:08:43;;;;;;;6.97;1.90;;;-3276.50;79.70;;;;;;5030687;28;20487;-69
2021/12/21 10:11:19;;;;;;;6.43;2.22;;;-3276.50;79.80;;;;;;5032795;28;20075;-68
2021/12/21 10:13:46;;;;;;;7.07;3.10;;;-3276.50;79.80;;;;;;5033533;28;20041;-69
2021/12/21 10:16:13;;;;;;;5.82;2.83;;;-3276.60;80.00;;;;;;5033174;28;20048;-69
2021/12/21 10:18:42;;;;;;;7.50;2.35;;;-3276.60;79.90;;;;;;5032955;28;20116;-70
2021/12/21 10:21:14;;;;;;;4.60;2.17;;;-3276.60;80.00;;;;;;5032513;28;20105;-68
2021/12/21 10:23:44;;;;;;;3.78;1.75;;;-3276.60;80.00;;;;;;5015093;28;20053;-69
2021/12/21 10:26:12;;;;;;;4.85;2.55;;;-3276.70;80.00;;;;;;5033078;28;20091;-70
2021/12/21 10:28:42;;;;;;;3.28;1.88;;;-3276.70;80.00;;;;;;5031733;28;20414;-70
2021/12/21 10:31:11;;;;;;;6.97;2.53;;;-3276.70;80.10;;;;;;5033179;28;20048;-69
2021/12/21 10:33:40;;;;;;;5.80;2.30;;;-3276.70;80.20;;;;;;5032545;28;20037;-68
2021/12/21 10:36:09;;;;;;;7.07;2.17;;;0.00;80.20;;;;;;5032822;28;20045;-71
2021/12/21 10:38:40;;;;;;;4.47;2.17;;;0.00;80.20;;;;;;5031845;28;20053;-69
2021/12/21 10:41:10;;;;;;;5.10;1.27;;;0.00;80.20;;;;;;5032816;28;20499;-68
2021/12/21 10:43:37;;;;;;;8.50;2.25;;;0.00;80.20;;;;;;5032143;28;20076;-69
2021/12/21 10:46:05;;;;;;;7.50;2.33;;;0.00;80.30;;;;;;5032820;28;20049;-70
2021/12/21 10:48:36;;;;;;;7.60;2.50;;;0.00;80.20;;;;;;5031890;28;20096;-70
2021/12/21 10:51:08;;;;;;;2.85;1.45;;;0.10;80.20;;;;;;5031991;28;20046;-70
2021/12/21 10:53:37;;;;;;;5.38;1.83;;;0.20;80.30;;;;;;5031860;28;20049;-69
2021/12/21 10:56:07;;;;;;;8.68;2.00;;;0.20;80.20;;;;;;5030624;28;20530;-69
2021/12/21 10:58:39;;;;;;;4.13;2.22;;;0.20;80.20;;;;;;5030304;28;20599;-70
2021/12/21 11:01:09;;;;;;;3.38;1.60;;;0.30;80.10;;;;;;5027782;28;20159;-70
2021/12/21 11:03:40;;;;;;;3.05;1.70;;;0.30;80.00;;;;;;5030494;28;20116;-70
2021/12/21 11:06:13;;;;;;;5.95;2.25;;;0.30;80.00;;;;;;5030923;28;20045;-68
2021/12/21 11:08:41;;;;;;;4.70;2.35;;;0.40;79.90;;;;;;5029725;28;20606;-69
2021/12/21 11:11:11;;;;;;;5.05;2.60;;;0.40;79.90;;;;;;5029024;28;20132;-70
2021/12/21 11:13:40;;;;;;;4.60;2.40;;;0.50;79.90;;;;;;5030853;28;20099;-70
2021/12/21 11:16:07;;;;;;;7.70;1.80;;;0.50;79.80;;;;;;5027758;28;20049;-72
2021/12/21 11:18:37;;;;;;;4.68;1.73;;;0.60;79.80;;;;;;5029899;28;20446;-69
2021/12/21 11:21:09;;;;;;;6.80;2.00;;;0.60;79.90;;;;;;5028848;28;20131;-68
2021/12/21 11:23:39;;;;;;;4.50;2.20;;;0.60;79.90;;;;;;5029972;28;20081;-70
2021/12/21 11:26:07;;;;;;;4.40;2.20;;;0.60;79.90;;;;;;5030031;28;20053;-69
2021/12/21 11:28:36;;;;;;;3.15;1.63;;;0.60;80.00;;;;;;5028899;28;20049;-69
2021/12/21 11:31:07;;;;;;;4.18;1.90;;;0.70;79.90;;;;;;5029815;28;20045;-71
2021/12/21 11:33:41;;;;;;;;;;;0.70;79.90;;;;;;5030044;28;20491;-69
2021/12/21 11:38:54;;;;;;;5.93;2.33;;;0.70;79.80;;;;;;5031584;28;20033;-69
2021/12/21 11:41:21;;;;;;;4.25;1.80;;;0.80;79.80;;;;;;5031592;28;20051;-70
2021/12/21 11:43:57;;;;;;;8.57;2.53;;;0.80;79.80;;;;;;5031113;28;20044;-70
2021/12/21 11:46:34;;;;;;;6.45;2.83;;;0.80;79.80;;;;;;5031156;28;20037;-70
2021/12/21 11:49:07;;;;;;;5.13;2.78;;;0.80;79.80;;;;;;5031386;28;20038;-70
2021/12/21 11:51:34;;;;;;;4.20;2.15;;;0.80;79.80;;;;;;5031457;28;20050;-70
2021/12/21 11:54:01;;;;;;;7.40;2.03;;;0.80;79.80;;;;;;5030588;28;20040;-69
2021/12/21 11:56:29;;;;;;;8.88;2.38;;;0.90;79.90;;;;;;5031012;28;20046;-70
2021/12/21 11:58:58;;;;;;;6.15;2.53;;;0.90;79.90;;;;;;5031052;28;20049;-70
2021/12/21 12:01:28;;;;;;;7.75;2.53;;;0.90;79.90;;;;;;5026905;28;20044;-73
2021/12/21 12:04:00;;;;;;;10.53;3.20;;;0.90;79.80;;;;;;5030580;28;20042;-71
2021/12/21 12:06:45;;;;;;;7.75;3.47;;;1.00;79.90;;;;;;5031419;28;20073;-70
2021/12/21 12:09:21;;;;;;;7.72;2.05;;;1.00;79.90;;;;;;5030205;28;20166;-69
2021/12/21 12:11:48;;;;;;;10.50;3.53;;;1.00;80.00;;;;;;5030529;28;20127;-68
2021/12/21 12:14:19;;;;;;;7.07;2.67;;;1.10;80.10;;;;;;5031401;28;20116;-67
2021/12/21 12:16:52;;;;;;;7.03;3.05;;;1.10;80.10;;;;;;5030353;28;20041;-71
2021/12/21 12:19:21;;;;;;;6.82;2.38;;;1.10;80.00;;;;;;5030915;28;20148;-70
2021/12/21 12:21:56;;;;;;;5.80;2.63;;;1.10;80.10;;;;;;5031050;28;20052;-70
2021/12/21 12:24:26;;;;;;;13.02;2.70;;;1.10;80.20;;;;;;5031371;28;20049;-69
2021/12/21 12:27:01;;;;;;;9.70;3.35;;;1.20;80.10;;;;;;5029799;28;20037;-69
2021/12/21 12:29:28;;;;;;;5.97;3.17;;;1.20;80.10;;;;;;5030610;28;20488;-68
2021/12/21 12:32:07;;;;;;;14.00;2.47;;;1.20;80.20;;;;;;5030171;28;20052;-69
2021/12/21 12:34:36;;;;;;;6.45;2.47;;;1.20;80.10;;;;;;5030329;28;20045;-68
2021/12/21 12:37:17;;;;;;;6.05;3.78;;;1.30;80.20;;;;;;5029067;28;20127;-69
2021/12/21 12:39:47;;;;;;;7.05;3.10;;;1.20;80.20;;;;;;5028727;28;20123;-69
2021/12/21 12:42:18;;;;;;;7.45;3.80;;;1.30;80.20;;;;;;5028922;28;20037;-70
2021/12/21 12:44:46;;;;;;;4.75;3.00;;;1.30;80.20;;;;;;5028647;28;20041;-69
2021/12/21 12:47:16;;;;;;;6.22;2.25;;;1.30;80.20;;;;;;5028905;28;20046;-69
2021/12/21 12:49:49;;;;;;;5.07;2.20;;;1.30;80.30;;;;;;5027762;28;20057;-69
2021/12/21 12:52:18;;;;;;;5.93;1.90;;;1.40;80.30;;;;;;5028654;28;20045;-68
2021/12/21 12:54:49;;;;;;;8.23;2.45;;;1.40;80.30;;;;;;5027844;28;20051;-69
2021/12/21 12:57:30;;;;;;;;;;;1.40;80.40;;;;;;5028666;28;20068;-68
2021/12/21 12:59:58;;;;;;;8.32;2.40;;;1.40;80.40;;;;;;5028133;28;19925;-69
2021/12/21 13:02:27;;;;;;;9.10;2.72;;;1.40;80.40;;;;;;5026544;28;20045;-69
2021/12/21 13:04:59;;;;;;;4.03;1.73;;;1.40;80.40;;;;;;5028363;28;20360;-69
2021/12/21 13:07:27;;;;;;;4.95;2.40;;;1.50;80.40;;;;;;5027270;28;20103;-70
2021/12/21 13:10:04;;;;;;;7.10;2.38;;;1.50;80.30;;;;;;5027563;28;20061;-71
2021/12/21 13:12:31;;;;;;;7.95;1.88;;;1.50;80.30;;;;;;5028035;28;20132;-70
2021/12/21 13:14:59;;;;;;;7.45;1.90;;;1.60;80.30;;;;;;5029161;28;20051;-70
2021/12/21 13:17:28;;;;;;;3.58;1.52;;;1.50;80.30;;;;;;5030442;28;20068;-69